createdAt,value
2022-08-14T00:01:11.594Z,68.61
2022-08-14T00:03:41.553Z,69.94
2022-08-14T00:06:25.862Z,68.92
2022-08-14T00:08:59.308Z,69.69
2022-08-14T00:11:31.203Z,69.53
2022-08-14T00:14:01.481Z,68.82
2022-08-14T00:16:40.901Z,68.34
2022-08-14T00:19:19.182Z,68.42
2022-08-14T00:21:50.252Z,67.89
2022-08-14T00:24:22.950Z,67.67
2022-08-14T00:26:56.247Z,68.72
2022-08-14T00:29:25.562Z,68.93
2022-08-14T00:31:55.283Z,68.55
2022-08-14T00:34:35.410Z,68.96
2022-08-14T00:37:05.473Z,68.99
2022-08-14T00:39:32.435Z,69.90
2022-08-14T00:41:59.153Z,69.36
2022-08-14T00:44:32.465Z,69.67
2022-08-14T00:47:10.579Z,70.23
2022-08-14T00:49:37.934Z,70.56
2022-08-14T00:52:11.065Z,70.66
2022-08-14T00:54:45.453Z,70.70
2022-08-14T00:57:12.295Z,71.33
2022-08-14T00:59:39.484Z,71.03
2022-08-14T01:02:06.702Z,70.98
2022-08-14T01:04:51.214Z,71.03
2022-08-14T01:07:22.786Z,71.30
2022-08-14T01:10:02.432Z,71.60
2022-08-14T01:12:30.527Z,71.98
2022-08-14T01:14:59.065Z,72.74
2022-08-14T01:17:49.980Z,73.80
2022-08-14T01:20:35.911Z,73.90
2022-08-14T01:23:16.283Z,72.21
2022-08-14T01:25:51.386Z,71.84
2022-08-14T01:28:34.481Z,70.87
2022-08-14T01:31:14.145Z,70.85
2022-08-14T01:35:15.767Z,70.71
2022-08-14T01:36:36.813Z,70.90
2022-08-14T01:39:12.794Z,71.80
2022-08-14T01:41:52.352Z,72.32
2022-08-14T01:44:32.438Z,72.55
2022-08-14T01:47:05.885Z,72.49
2022-08-14T01:49:35.463Z,72.72
2022-08-14T01:52:13.391Z,72.54
2022-08-14T01:54:58.042Z,72.74
2022-08-14T01:57:25.264Z,73.50
2022-08-14T02:00:00.613Z,73.46
2022-08-14T02:02:29.837Z,74.02
2022-08-14T02:05:03.718Z,73.51
2022-08-14T02:07:44.706Z,73.70
2022-08-14T02:10:18.971Z,73.69
2022-08-14T02:12:56.951Z,74.35
2022-08-14T02:15:25.011Z,75.09
2022-08-14T02:17:51.718Z,75.06
2022-08-14T02:20:23.473Z,75.40
2022-08-14T02:22:54.647Z,75.48
2022-08-14T02:25:22.485Z,74.88
2022-08-14T02:28:24.093Z,75.63
2022-08-14T02:30:38.561Z,76.52
2022-08-14T02:33:07.187Z,76.74
2022-08-14T02:35:33.634Z,76.85
2022-08-14T02:38:07.320Z,76.76
2022-08-14T02:40:38.752Z,76.35
2022-08-14T02:43:07.905Z,76.29
2022-08-14T02:45:38.426Z,76.42
2022-08-14T02:49:03.568Z,76.07
2022-08-14T02:51:00.554Z,76.39
2022-08-14T02:53:27.202Z,76.61
2022-08-14T02:55:56.374Z,77.81
2022-08-14T02:58:31.098Z,77.75
2022-08-14T03:00:59.176Z,77.66
2022-08-14T03:03:26.275Z,76.44
2022-08-14T03:05:54.399Z,75.60
2022-08-14T03:08:22.180Z,75.45
2022-08-14T03:10:50.278Z,75.79
2022-08-14T03:13:21.621Z,75.48
2022-08-14T03:15:55.833Z,75.72
2022-08-14T03:18:32.057Z,76.74
2022-08-14T03:21:07.837Z,77.01
2022-08-14T03:23:38.235Z,77.28
2022-08-14T03:26:13.033Z,77.41
2022-08-14T03:28:48.667Z,77.45
2022-08-14T03:31:16.032Z,79.82
2022-08-14T03:33:43.261Z,78.77
2022-08-14T03:37:51.145Z,77.72
2022-08-14T03:39:13.948Z,76.75
2022-08-14T03:41:50.715Z,76.68
2022-08-14T03:45:25.362Z,77.40
2022-08-14T03:47:04.470Z,77.57
2022-08-14T03:49:31.983Z,77.26
2022-08-14T03:52:07.722Z,77.67
2022-08-14T03:54:46.204Z,78.09
2022-08-14T03:57:18.926Z,79.10
2022-08-14T03:59:45.591Z,79.10
2022-08-14T04:02:32.802Z,79.85
2022-08-14T04:05:12.314Z,80.28
2022-08-14T04:07:41.497Z,80.44
2022-08-14T04:10:17.516Z,80.87
2022-08-14T04:12:52.913Z,80.97
2022-08-14T04:15:21.238Z,79.80
2022-08-14T04:17:50.222Z,79.01
2022-08-14T04:20:17.156Z,79.27
2022-08-14T04:22:53.219Z,79.13
2022-08-14T04:25:22.271Z,79.23
2022-08-14T04:28:02.465Z,79.19
2022-08-14T04:30:32.830Z,79.73
2022-08-14T04:33:06.415Z,79.93
2022-08-14T04:35:55.419Z,79.79
2022-08-14T04:38:42.014Z,80.13
2022-08-14T04:41:30.339Z,80.01
2022-08-14T04:43:58.000Z,81.28
2022-08-14T04:46:55.335Z,80.52
2022-08-14T04:49:15.022Z,79.16
2022-08-14T04:51:55.393Z,79.01
2022-08-14T04:54:26.720Z,79.06
2022-08-14T04:56:54.973Z,78.69
2022-08-14T04:59:23.298Z,77.95
2022-08-14T05:01:55.198Z,78.35
2022-08-14T05:04:24.914Z,77.52
2022-08-14T05:06:55.008Z,77.14
2022-08-14T05:09:29.341Z,76.66
2022-08-14T05:12:23.884Z,76.28
2022-08-14T05:14:53.476Z,75.59
2022-08-14T05:17:28.780Z,75.91
2022-08-14T05:21:57.918Z,75.39
2022-08-14T05:22:59.321Z,75.89
2022-08-14T05:25:25.867Z,76.09
2022-08-14T05:28:00.439Z,74.83
2022-08-14T05:30:27.052Z,74.46
2022-08-14T05:32:53.919Z,73.34
2022-08-14T05:35:20.617Z,67.48
2022-08-14T05:37:50.060Z,61.13
2022-08-14T05:40:16.909Z,55.19
2022-08-14T05:42:46.579Z,50.71
2022-08-14T05:45:20.021Z,47.49
2022-08-14T05:47:46.573Z,45.25
2022-08-14T05:50:19.069Z,47.98
2022-08-14T05:52:50.894Z,44.14
2022-08-14T05:55:22.135Z,42.06
2022-08-14T05:57:59.760Z,39.12
2022-08-14T06:00:38.706Z,37.38
2022-08-14T06:03:09.613Z,38.78
2022-08-14T06:05:38.609Z,38.76
2022-08-14T06:08:08.490Z,36.62
2022-08-14T06:10:35.286Z,36.27
2022-08-14T06:13:03.269Z,36.97
2022-08-14T06:15:30.752Z,37.75
2022-08-14T06:17:59.798Z,36.86
2022-08-14T06:20:27.939Z,35.04
2022-08-14T06:22:55.169Z,33.10
2022-08-14T06:25:23.807Z,31.99
2022-08-14T06:27:51.880Z,31.93
2022-08-14T06:30:30.458Z,30.86
2022-08-14T06:33:10.264Z,31.08
2022-08-14T06:35:42.526Z,30.89
2022-08-14T06:38:18.103Z,30.84
2022-08-14T06:40:48.899Z,31.21
2022-08-14T06:43:19.204Z,31.60
2022-08-14T06:45:53.954Z,30.96
2022-08-14T06:48:24.897Z,30.28
2022-08-14T06:50:55.377Z,30.34
2022-08-14T06:53:28.031Z,29.95
2022-08-14T06:56:01.842Z,29.70
2022-08-14T06:58:33.780Z,29.48
2022-08-14T07:01:27.554Z,29.96
2022-08-14T07:04:22.744Z,29.10
2022-08-14T07:06:50.655Z,29.76
2022-08-14T07:09:22.561Z,30.43
2022-08-14T07:11:51.861Z,29.66
2022-08-14T07:14:18.428Z,29.21
2022-08-14T07:16:45.008Z,29.13
2022-08-14T07:19:11.953Z,28.85
2022-08-14T07:21:39.694Z,28.42
2022-08-14T07:24:09.779Z,28.60
2022-08-14T07:26:48.133Z,29.09
2022-08-14T07:29:14.686Z,28.79
2022-08-14T07:31:43.976Z,28.31
2022-08-14T07:34:11.464Z,29.16
2022-08-14T07:36:38.110Z,29.53
2022-08-14T07:39:27.400Z,30.22
2022-08-14T07:41:57.265Z,29.98
2022-08-14T07:44:32.724Z,29.41
2022-08-14T07:47:03.722Z,29.06
2022-08-14T07:49:32.434Z,29.14
2022-08-14T07:51:59.919Z,29.78
2022-08-14T07:54:29.863Z,29.66
2022-08-14T07:57:06.268Z,29.19
2022-08-14T07:59:41.308Z,29.08
2022-08-14T08:02:18.979Z,29.73
2022-08-14T08:04:59.140Z,28.93
2022-08-14T08:07:30.949Z,28.97
2022-08-14T08:09:59.678Z,28.95
2022-08-14T08:12:30.915Z,28.17
2022-08-14T08:15:03.265Z,28.07
2022-08-14T08:17:38.939Z,28.15
2022-08-14T08:20:15.457Z,30.76
2022-08-14T08:22:48.112Z,31.53
2022-08-14T08:25:17.991Z,31.59
2022-08-14T08:28:08.919Z,30.61
2022-08-14T08:30:51.281Z,30.49
2022-08-14T08:33:19.462Z,30.05
2022-08-14T08:35:50.891Z,31.72
2022-08-14T08:39:17.145Z,31.49
2022-08-14T08:41:12.264Z,30.88
2022-08-14T08:43:39.683Z,32.28
2022-08-14T08:46:21.242Z,31.33
2022-08-14T08:51:42.808Z,30.80
2022-08-14T08:54:18.563Z,31.23
2022-08-14T08:56:49.962Z,30.73
2022-08-14T08:59:30.709Z,30.06
2022-08-14T09:02:06.540Z,30.07
2022-08-14T09:04:45.209Z,29.97
2022-08-14T09:07:20.072Z,29.99
2022-08-14T09:09:59.100Z,30.31
2022-08-14T09:12:32.440Z,30.72
2022-08-14T09:15:11.366Z,33.48
2022-08-14T09:17:42.931Z,34.74
2022-08-14T09:20:12.471Z,33.08
2022-08-14T09:22:48.291Z,33.65
2022-08-14T09:25:16.842Z,35.42
2022-08-14T09:27:43.447Z,33.64
2022-08-14T09:30:30.973Z,32.30
2022-08-14T09:33:11.178Z,31.72
2022-08-14T09:36:00.213Z,32.02
2022-08-14T09:38:46.201Z,31.83
2022-08-14T09:42:21.163Z,31.23
2022-08-14T09:44:52.437Z,32.80
2022-08-14T09:47:19.239Z,32.31
2022-08-14T09:49:47.149Z,34.53
2022-08-14T09:52:33.369Z,32.49
2022-08-14T09:55:01.208Z,30.47
2022-08-14T09:57:31.926Z,30.22
2022-08-14T10:00:09.856Z,28.78
2022-08-14T10:03:05.600Z,31.68
2022-08-14T10:05:34.974Z,31.69
2022-08-14T10:08:17.650Z,32.90
2022-08-14T10:10:57.248Z,32.76
2022-08-14T10:13:42.976Z,31.29
2022-08-14T10:16:21.892Z,30.16
2022-08-14T10:19:09.439Z,30.29
2022-08-14T10:23:12.222Z,31.52
2022-08-14T10:24:37.346Z,29.88
2022-08-14T10:27:04.876Z,28.85
2022-08-14T10:29:40.765Z,28.78
2022-08-14T10:32:17.668Z,26.38
2022-08-14T10:34:46.283Z,24.56
2022-08-14T10:37:19.609Z,24.50
2022-08-14T10:40:10.519Z,26.33
2022-08-14T10:42:48.107Z,28.63
2022-08-14T10:45:30.739Z,25.46
2022-08-14T10:48:07.485Z,24.13
2022-08-14T10:50:38.861Z,23.93
2022-08-14T10:53:05.779Z,26.19
2022-08-14T10:55:45.261Z,27.71
2022-08-14T10:58:14.807Z,28.16
2022-08-14T11:00:56.551Z,27.40
2022-08-14T11:03:26.675Z,25.05
2022-08-14T11:06:15.213Z,23.64
2022-08-14T11:08:42.313Z,26.09
2022-08-14T11:11:12.656Z,29.40
2022-08-14T11:13:44.104Z,26.07
2022-08-14T11:16:11.190Z,27.28
2022-08-14T11:18:40.325Z,26.96
2022-08-14T11:21:08.228Z,27.58
2022-08-14T11:23:40.876Z,27.71
2022-08-14T11:26:10.159Z,25.27
2022-08-14T11:28:47.431Z,28.06
2022-08-14T11:31:18.067Z,27.84
2022-08-14T11:33:49.452Z,27.88
2022-08-14T11:36:18.738Z,29.29
2022-08-14T11:38:46.657Z,27.24
2022-08-14T11:41:17.316Z,25.81
2022-08-14T11:43:57.972Z,24.30
2022-08-14T11:46:30.330Z,24.24
2022-08-14T11:49:06.361Z,25.60
2022-08-14T11:51:36.204Z,25.71
2022-08-14T11:54:20.764Z,26.15
2022-08-14T11:57:01.667Z,30.53
2022-08-14T11:59:32.844Z,28.22
2022-08-14T12:03:00.661Z,27.66
2022-08-14T12:05:04.213Z,28.64
2022-08-14T12:07:31.088Z,27.59
2022-08-14T12:09:59.321Z,27.32
2022-08-14T12:12:47.269Z,29.24
2022-08-14T12:15:13.932Z,28.98
2022-08-14T12:17:50.419Z,29.07
2022-08-14T12:20:29.882Z,27.37
2022-08-14T12:23:05.258Z,27.40
2022-08-14T12:25:34.616Z,26.08
2022-08-14T12:28:10.250Z,27.83
2022-08-14T12:30:56.745Z,27.94
2022-08-14T12:33:33.700Z,26.21
2022-08-14T12:36:05.816Z,24.30
2022-08-14T12:38:44.943Z,24.84
2022-08-14T12:41:20.250Z,24.73
2022-08-14T12:43:51.706Z,24.20
2022-08-14T12:46:33.692Z,25.06
2022-08-14T12:49:08.807Z,24.64
2022-08-14T12:51:35.618Z,26.07
2022-08-14T12:54:19.353Z,25.11
2022-08-14T12:57:04.478Z,23.17
2022-08-14T12:59:33.251Z,21.68
2022-08-14T13:02:05.611Z,22.77
2022-08-14T13:04:36.183Z,21.43
2022-08-14T13:07:08.827Z,24.16
2022-08-14T13:09:37.727Z,21.25
2022-08-14T13:12:32.065Z,21.70
2022-08-14T13:14:52.758Z,20.43
2022-08-14T13:17:20.544Z,19.74
2022-08-14T13:19:48.508Z,19.44
2022-08-14T13:22:29.278Z,18.37
2022-08-14T13:25:05.217Z,17.20
2022-08-14T13:27:34.026Z,18.25
2022-08-14T13:30:10.433Z,18.80
2022-08-14T13:32:44.728Z,19.66
2022-08-14T13:35:17.511Z,20.39
2022-08-14T13:37:48.177Z,18.78
2022-08-14T13:40:21.178Z,18.07
2022-08-14T13:42:53.198Z,17.22
2022-08-14T13:45:24.112Z,17.39
2022-08-14T13:48:01.315Z,16.78
2022-08-14T13:50:27.801Z,16.75
2022-08-14T13:52:58.236Z,17.39
2022-08-14T13:55:30.498Z,16.40
2022-08-14T13:58:03.658Z,17.35
2022-08-14T14:00:51.677Z,17.64
2022-08-14T14:03:20.766Z,19.78
2022-08-14T14:05:54.603Z,18.80
2022-08-14T14:08:46.814Z,20.16
2022-08-14T14:11:10.650Z,19.08
2022-08-14T14:13:42.047Z,17.28
2022-08-14T14:16:15.291Z,18.37
2022-08-14T14:18:59.030Z,17.89
2022-08-14T14:21:28.582Z,17.82
2022-08-14T14:23:56.235Z,16.31
2022-08-14T14:26:24.626Z,18.06
2022-08-14T14:28:57.006Z,16.49
2022-08-14T14:31:29.664Z,16.68
2022-08-14T14:34:07.741Z,17.71
2022-08-14T14:36:52.625Z,17.08
2022-08-14T14:39:28.939Z,16.73
2022-08-14T14:42:00.129Z,17.38
2022-08-14T14:44:40.646Z,16.27
2022-08-14T14:47:12.430Z,15.65
2022-08-14T14:49:51.137Z,16.95
2022-08-14T14:52:26.917Z,17.15
2022-08-14T14:54:56.839Z,17.34
2022-08-14T14:57:27.830Z,17.53
2022-08-14T15:00:02.226Z,17.23
2022-08-14T15:02:38.066Z,18.27
2022-08-14T15:05:08.022Z,17.95
2022-08-14T15:07:35.762Z,16.98
2022-08-14T15:10:03.014Z,16.53
2022-08-14T15:12:54.926Z,16.08
2022-08-14T15:15:17.012Z,15.59
2022-08-14T15:17:44.067Z,18.66
2022-08-14T15:20:17.495Z,17.50
2022-08-14T15:22:57.360Z,15.23
2022-08-14T15:25:24.257Z,14.33
2022-08-14T15:27:54.281Z,16.13
2022-08-14T15:30:24.137Z,16.82
2022-08-14T15:32:58.558Z,18.26
2022-08-14T15:35:25.649Z,19.37
2022-08-14T15:37:55.826Z,19.64
2022-08-14T15:40:23.274Z,19.40
2022-08-14T15:42:49.816Z,20.36
2022-08-14T15:45:17.080Z,20.01
2022-08-14T15:47:43.608Z,19.42
2022-08-14T15:50:10.270Z,20.36
2022-08-14T15:52:37.554Z,23.48
2022-08-14T15:55:10.460Z,23.04
2022-08-14T15:58:02.128Z,25.08
2022-08-14T16:00:49.180Z,25.79
2022-08-14T16:03:18.032Z,25.26
2022-08-14T16:05:51.615Z,24.95
2022-08-14T16:08:29.094Z,25.14
2022-08-14T16:10:58.511Z,25.51
2022-08-14T16:13:41.566Z,25.81
2022-08-14T16:16:47.093Z,25.24
2022-08-14T16:19:10.670Z,24.98
2022-08-14T16:21:40.623Z,25.86
2022-08-14T16:24:08.185Z,26.00
2022-08-14T16:27:00.851Z,25.83
2022-08-14T16:29:29.072Z,25.47
2022-08-14T16:31:58.149Z,25.77
2022-08-14T16:34:45.610Z,25.98
2022-08-14T16:37:15.301Z,26.37
2022-08-14T16:39:42.908Z,25.97
2022-08-14T16:43:03.310Z,26.05
2022-08-14T16:44:58.137Z,26.70
2022-08-14T16:47:25.569Z,26.80
2022-08-14T16:50:08.510Z,26.48
2022-08-14T16:52:44.388Z,27.04
2022-08-14T16:55:14.025Z,26.77
2022-08-14T16:57:51.819Z,26.95
2022-08-14T17:00:32.866Z,27.57
2022-08-14T17:03:11.770Z,27.86
2022-08-14T17:05:43.047Z,27.88
2022-08-14T17:08:32.532Z,27.70
2022-08-14T17:11:10.910Z,28.03
2022-08-14T17:13:58.677Z,28.04
2022-08-14T17:16:33.013Z,27.60
2022-08-14T17:19:04.834Z,28.66
2022-08-14T17:21:38.482Z,28.10
2022-08-14T17:24:56.450Z,27.35
2022-08-14T17:27:00.065Z,27.84
2022-08-14T17:29:55.947Z,29.25
2022-08-14T17:32:29.373Z,29.92
2022-08-14T17:35:16.519Z,30.30
2022-08-14T17:37:46.079Z,30.74
2022-08-14T17:40:25.969Z,30.70
2022-08-14T17:43:02.158Z,32.01
2022-08-14T17:45:41.258Z,32.34
2022-08-14T17:49:14.473Z,32.45
2022-08-14T17:51:12.242Z,33.45
2022-08-14T17:53:53.492Z,33.61
2022-08-14T17:56:31.533Z,34.67
2022-08-14T17:59:05.313Z,35.02
2022-08-14T18:01:37.325Z,37.23
2022-08-14T18:04:24.387Z,37.17
2022-08-14T18:06:58.837Z,36.46
2022-08-14T18:09:56.865Z,37.22
2022-08-14T18:12:36.741Z,38.74
2022-08-14T18:15:18.675Z,39.16
2022-08-14T18:17:52.907Z,39.94
2022-08-14T18:21:40.012Z,40.58
2022-08-14T18:23:13.142Z,40.44
2022-08-14T18:25:48.468Z,40.55
2022-08-14T18:28:18.209Z,41.62
2022-08-14T18:31:22.718Z,42.25
2022-08-14T18:33:53.720Z,41.91
2022-08-14T18:36:48.388Z,42.88
2022-08-14T18:39:26.836Z,43.91
2022-08-14T18:42:22.998Z,43.66
2022-08-14T18:44:50.568Z,44.83
2022-08-14T18:47:19.943Z,44.87
2022-08-14T18:49:57.349Z,45.58
2022-08-14T18:52:33.382Z,45.73
2022-08-14T18:55:16.529Z,46.05
2022-08-14T18:58:07.714Z,47.64
2022-08-14T19:00:52.786Z,47.47
2022-08-14T19:03:22.740Z,48.27
2022-08-14T19:05:49.285Z,47.98
2022-08-14T19:08:22.141Z,48.08
2022-08-14T19:10:53.839Z,48.23
2022-08-14T19:13:48.454Z,48.45
2022-08-14T19:16:23.481Z,48.65
2022-08-14T19:19:00.170Z,49.00
2022-08-14T19:21:40.943Z,48.99
2022-08-14T19:24:27.474Z,49.31
2022-08-14T19:27:19.562Z,49.49
2022-08-14T19:29:51.282Z,49.82
2022-08-14T19:32:36.844Z,49.92
2022-08-14T19:35:49.829Z,50.38
2022-08-14T19:39:02.264Z,50.53
2022-08-14T19:41:34.390Z,51.06
2022-08-14T19:44:19.531Z,51.50
2022-08-14T19:47:00.438Z,51.35
2022-08-14T19:50:30.172Z,51.15
2022-08-14T19:52:24.093Z,50.95
2022-08-14T19:54:51.507Z,51.39
2022-08-14T19:57:29.259Z,50.96
2022-08-14T20:00:28.143Z,51.18
2022-08-14T20:03:10.793Z,51.02
2022-08-14T20:05:45.340Z,51.60
2022-08-14T20:11:00.236Z,51.44
2022-08-14T20:11:11.522Z,51.67
2022-08-14T20:13:46.572Z,51.74
2022-08-14T20:16:20.923Z,51.95
2022-08-14T20:18:58.004Z,52.37
2022-08-14T20:21:34.491Z,52.58
2022-08-14T20:24:30.888Z,52.95
2022-08-14T20:27:16.774Z,52.62
2022-08-14T20:29:44.844Z,52.87
2022-08-14T20:32:14.816Z,53.08
2022-08-14T20:34:51.331Z,53.46
2022-08-14T20:37:22.486Z,53.41
2022-08-14T20:39:54.724Z,54.20
2022-08-14T20:42:43.551Z,54.07
2022-08-14T20:45:21.474Z,54.46
2022-08-14T20:47:56.656Z,54.55
2022-08-14T20:50:28.353Z,54.58
2022-08-14T20:52:58.355Z,53.55
2022-08-14T20:55:28.968Z,53.67
2022-08-14T20:57:57.849Z,53.25
2022-08-14T21:00:52.388Z,53.01
2022-08-14T21:03:31.004Z,53.56
2022-08-14T21:06:00.363Z,54.12
2022-08-14T21:08:30.013Z,54.21
2022-08-14T21:10:56.662Z,53.87
2022-08-14T21:14:09.336Z,54.54
2022-08-14T21:16:34.279Z,54.83
2022-08-14T21:18:59.942Z,55.59
2022-08-14T21:21:41.643Z,55.94
2022-08-14T21:24:38.592Z,55.91
2022-08-14T21:27:02.108Z,56.31
2022-08-14T21:29:31.284Z,56.52
2022-08-14T21:31:57.686Z,56.86
2022-08-14T21:34:31.702Z,56.91
2022-08-14T21:37:09.155Z,56.88
2022-08-14T21:39:36.864Z,57.17
2022-08-14T21:42:05.751Z,57.22
2022-08-14T21:44:42.763Z,57.97
2022-08-14T21:47:12.215Z,58.35
2022-08-14T21:49:40.213Z,58.57
2022-08-14T21:52:49.129Z,58.45
2022-08-14T21:55:09.106Z,59.39
2022-08-14T21:58:42.657Z,59.66
2022-08-14T22:00:35.364Z,59.71
2022-08-14T22:03:10.733Z,60.30
2022-08-14T22:05:41.407Z,60.61
2022-08-14T22:08:12.276Z,60.85
2022-08-14T22:10:42.462Z,61.40
2022-08-14T22:13:12.215Z,63.50
2022-08-14T22:15:43.812Z,62.87
2022-08-14T22:18:20.371Z,62.17
2022-08-14T22:20:48.516Z,61.62
2022-08-14T22:23:21.592Z,61.55
2022-08-14T22:25:50.375Z,61.74
2022-08-14T22:28:21.483Z,61.43
2022-08-14T22:30:55.300Z,61.36
2022-08-14T22:33:31.031Z,61.56
2022-08-14T22:35:59.227Z,61.55
2022-08-14T22:38:36.779Z,61.77
2022-08-14T22:41:26.797Z,61.85
2022-08-14T22:43:57.576Z,61.81
2022-08-14T22:46:26.332Z,62.11
2022-08-14T22:48:53.754Z,61.95
2022-08-14T22:51:22.673Z,62.58
2022-08-14T22:53:52.411Z,62.87
2022-08-14T22:56:21.843Z,62.60
2022-08-14T22:58:53.878Z,62.68
2022-08-14T23:01:55.198Z,62.30
2022-08-14T23:04:34.812Z,62.26
2022-08-14T23:07:22.035Z,62.58
2022-08-14T23:10:32.168Z,62.60
2022-08-14T23:12:54.503Z,62.95
2022-08-14T23:15:23.626Z,63.20
2022-08-14T23:17:51.200Z,63.68
2022-08-14T23:20:21.807Z,63.39
2022-08-14T23:22:54.115Z,63.26
2022-08-14T23:25:56.945Z,63.20
2022-08-14T23:28:33.690Z,63.16
2022-08-14T23:31:05.560Z,63.74
2022-08-14T23:33:33.098Z,63.40
2022-08-14T23:36:00.026Z,63.22
2022-08-14T23:38:31.018Z,62.74
2022-08-14T23:41:02.373Z,63.48
2022-08-14T23:43:31.658Z,63.21
2022-08-14T23:45:59.066Z,63.18
2022-08-14T23:48:28.168Z,63.07
2022-08-14T23:50:55.849Z,63.88
2022-08-14T23:53:28.486Z,63.26
2022-08-14T23:56:16.078Z,63.58
2022-08-14T23:58:49.103Z,63.75
